Time;durP1;ratioP1;P1;durP2;ratioP2;P2;SDS_P1;SDS_P2;PMS_P1;PMS_P2;Temp;Humidity;BMP_temperature;BMP_pressure;BME280_temperature;BME280_humidity;BME280_pressure;Samples;Min_cycle;Max_cycle;Signal;HPM_P1;HPM_P2
2020/12/23 00:02:14;;;;;;;5.60;2.53;;;;;;;-143.37;100.00;65745.06;5030596;28;20804;-68
2020/12/23 00:04:40;;;;;;;2.00;1.60;;;;;;;-143.37;100.00;65745.06;5029404;28;20211;-67
2020/12/23 00:07:07;;;;;;;6.07;2.80;;;;;;;-143.37;100.00;65745.06;5029852;28;20215;-67
2020/12/23 00:09:33;;;;;;;7.83;2.73;;;;;;;-143.37;100.00;65745.06;5030093;28;20746;-66
2020/12/23 00:11:59;;;;;;;4.87;2.50;;;;;;;-143.37;100.00;65745.06;5045283;28;20319;-68
2020/12/23 00:14:25;;;;;;;3.50;2.20;;;;;;;-143.37;100.00;65745.06;5043678;28;20659;-67
2020/12/23 00:16:51;;;;;;;4.30;2.30;;;;;;;-143.37;100.00;65745.06;5029343;28;20305;-68
2020/12/23 00:19:20;;;;;;;2.93;1.73;;;;;;;-143.37;100.00;65745.06;5029121;28;20210;-68
2020/12/23 00:21:46;;;;;;;2.03;1.60;;;;;;;-143.37;100.00;65745.06;5030879;28;20234;-67
2020/12/23 00:24:12;;;;;;;1.53;1.20;;;;;;;-143.37;100.00;65745.06;5031140;28;20237;-68
2020/12/23 00:26:38;;;;;;;2.80;1.50;;;;;;;-143.37;100.00;65745.06;5028315;28;20751;-67
2020/12/23 00:29:04;;;;;;;1.87;1.50;;;;;;;-143.37;100.00;65745.06;5029657;28;20209;-68
2020/12/23 00:31:30;;;;;;;3.03;1.80;;;;;;;-143.37;100.00;65745.06;5029564;28;20267;-69
2020/12/23 00:33:57;;;;;;;5.63;2.53;;;;;;;-143.37;100.00;65745.06;5028749;28;20219;-70
2020/12/23 00:36:23;;;;;;;1.83;1.50;;;;;;;-143.37;100.00;65745.06;5028960;28;20231;-70
2020/12/23 00:38:49;;;;;;;3.20;1.60;;;;;;;-143.37;100.00;65745.06;5029453;28;20253;-70
2020/12/23 00:41:15;;;;;;;2.13;1.60;;;;;;;-143.37;100.00;65745.06;5029344;28;20241;-69
2020/12/23 00:43:41;;;;;;;2.23;1.40;;;;;;;-143.37;100.00;65745.06;5028814;28;20813;-68
2020/12/23 00:46:13;;;;;;;3.23;1.20;;;;;;;-143.37;100.00;65745.06;5028954;28;20275;-69
2020/12/23 00:48:41;;;;;;;6.07;1.90;;;;;;;-143.37;100.00;65745.06;5029247;28;20285;-70
2020/12/23 00:51:09;;;;;;;4.93;1.77;;;;;;;-143.37;100.00;65745.06;5028637;28;20210;-69
2020/12/23 00:53:35;;;;;;;3.93;1.90;;;;;;;-143.37;100.00;65745.06;5028958;28;20210;-69
2020/12/23 00:56:02;;;;;;;2.03;1.40;;;;;;;-143.37;100.00;65745.06;5028126;28;20223;-69
2020/12/23 00:58:28;;;;;;;5.47;1.73;;;;;;;-143.37;100.00;65745.06;5029074;28;20560;-68
2020/12/23 01:34:13;;;;;;;3.10;1.50;;;;;;;11.73;100.00;98108.22;5108669;27;20552;-68
2020/12/23 01:36:40;;;;;;;2.53;1.90;;;;;;;11.69;100.00;98112.03;5108657;28;20226;-68
2020/12/23 01:39:06;;;;;;;6.00;3.33;;;;;;;11.58;100.00;98111.66;5109173;28;20644;-68
2020/12/23 01:41:34;;;;;;;3.33;2.50;;;;;;;11.35;100.00;98096.66;5109336;28;20203;-68
2020/12/23 01:44:00;;;;;;;4.20;2.67;;;;;;;11.44;100.00;98100.09;5113963;28;20207;-68
2020/12/23 01:46:30;;;;;;;3.00;1.63;;;;;;;11.74;100.00;98107.09;5115961;28;20421;-68
2020/12/23 01:48:57;;;;;;;4.80;1.97;;;;;;;11.70;100.00;98114.44;5109217;28;20214;-68
2020/12/23 01:51:25;;;;;;;2.73;2.13;;;;;;;11.57;100.00;98112.00;5109327;28;20204;-68
2020/12/23 01:53:54;;;;;;;2.87;1.87;;;;;;;11.54;100.00;98116.25;5108534;28;20246;-69
2020/12/23 01:56:21;;;;;;;3.40;2.50;;;;;;;11.40;100.00;98104.72;5108276;28;20226;-68
2020/12/23 01:58:48;;;;;;;4.87;2.90;;;;;;;11.38;100.00;98106.22;5108984;28;20303;-68
2020/12/23 02:01:27;;;;;;;2.87;2.00;;;;;;;11.52;100.00;98104.75;5108958;28;20204;-68
2020/12/23 02:03:53;;;;;;;3.63;2.03;;;;;;;11.51;100.00;98108.66;5108895;28;20195;-68
2020/12/23 02:06:19;;;;;;;4.37;2.30;;;;;;;11.47;100.00;98113.25;5108557;28;20230;-67
2020/12/23 02:08:47;;;;;;;3.67;2.33;;;;;;;11.44;100.00;98110.38;5108702;28;20208;-67
2020/12/23 02:11:14;;;;;;;3.70;2.50;;;;;;;11.34;100.00;98106.09;5108715;28;20702;-67
2020/12/23 02:13:43;;;;;;;4.40;2.10;;;;;;;11.19;100.00;98099.28;5108388;28;20238;-66
2020/12/23 02:16:11;;;;;;;4.40;2.27;;;;;;;11.42;100.00;98085.84;5110055;28;20266;-67
2020/12/23 02:18:37;;;;;;;3.70;2.90;;;;;;;11.32;100.00;98089.06;5111708;28;20647;-67
2020/12/23 02:21:22;;;;;;;3.97;2.40;;;;;;;11.36;100.00;98089.16;5108556;28;20261;-70
2020/12/23 02:23:48;;;;;;;2.00;1.57;;;;;;;11.62;100.00;98093.25;5107736;28;20197;-69
2020/12/23 02:26:14;;;;;;;3.33;1.87;;;;;;;11.76;100.00;98096.50;5107078;28;20246;-68
2020/12/23 02:28:40;;;;;;;1.77;1.37;;;;;;;11.81;100.00;98087.97;5108536;28;20681;-68
2020/12/23 02:31:07;;;;;;;4.67;1.87;;;;;;;11.71;100.00;98074.63;5108883;28;20196;-68
2020/12/23 02:33:33;;;;;;;4.97;1.53;;;;;;;11.70;100.00;98070.22;5107344;28;20310;-67
2020/12/23 02:35:59;;;;;;;2.47;1.57;;;;;;;11.82;100.00;98066.66;5106284;28;20274;-66
2020/12/23 02:38:25;;;;;;;2.07;1.57;;;;;;;11.82;100.00;98061.13;5093373;28;20673;-68
2020/12/23 02:40:51;;;;;;;1.83;1.47;;;;;;;11.86;100.00;98068.34;5102343;28;20257;-67
2020/12/23 02:43:17;;;;;;;2.50;1.57;;;;;;;11.83;100.00;98059.97;5109848;28;20207;-66
2020/12/23 02:45:43;;;;;;;6.73;1.70;;;;;;;11.86;100.00;98051.78;5095481;28;20689;-69
2020/12/23 02:48:09;;;;;;;3.60;1.30;;;;;;;11.88;100.00;98055.00;5097701;28;20210;-67
2020/12/23 02:50:36;;;;;;;4.43;1.40;;;;;;;11.99;100.00;98045.06;5091478;28;20204;-68
2020/12/23 02:53:02;;;;;;;1.50;1.10;;;;;;;12.16;100.00;98038.47;5092020;28;20574;-68
2020/12/23 02:55:28;;;;;;;1.20;1.10;;;;;;;12.05;100.00;98038.16;5093300;28;20620;-70
2020/12/23 02:57:54;;;;;;;1.57;0.90;;;;;;;12.12;100.00;98027.28;5094613;28;20239;-68
2020/12/23 03:00:20;;;;;;;2.73;1.10;;;;;;;12.12;100.00;98027.28;5092758;28;20212;-67
2020/12/23 03:02:46;;;;;;;1.93;0.93;;;;;;;12.18;100.00;98022.31;5094142;28;20291;-69
2020/12/23 03:05:12;;;;;;;2.13;1.13;;;;;;;12.14;100.00;98029.69;5092254;28;20676;-69
2020/12/23 03:07:38;;;;;;;2.53;1.10;;;;;;;12.17;100.00;98023.50;5094029;28;20300;-70
2020/12/23 03:10:04;;;;;;;1.00;0.70;;;;;;;12.30;100.00;98022.28;5096347;28;20200;-69
2020/12/23 03:12:30;;;;;;;2.53;1.33;;;;;;;12.28;100.00;98026.56;5096027;28;20232;-70
2020/12/23 03:14:56;;;;;;;2.20;1.03;;;;;;;12.22;100.00;98021.25;5104080;28;20224;-68
2020/12/23 03:17:22;;;;;;;2.03;1.03;;;;;;;12.17;100.00;98024.28;5102207;28;20201;-69
2020/12/23 03:19:48;;;;;;;3.00;1.10;;;;;;;12.21;100.00;98021.63;5092547;28;20282;-68
2020/12/23 03:22:14;;;;;;;3.30;0.93;;;;;;;12.22;100.00;98024.03;5092522;28;20678;-69
2020/12/23 03:24:43;;;;;;;1.70;1.00;;;;;;;12.25;100.00;98008.69;5091569;28;20208;-69
2020/12/23 03:27:09;;;;;;;2.93;1.00;;;;;;;12.21;100.00;98013.31;5093180;28;20273;-69
2020/12/23 03:29:35;;;;;;;1.60;0.87;;;;;;;12.19;100.00;98010.91;5093695;28;20235;-68
2020/12/23 03:32:02;;;;;;;2.30;0.97;;;;;;;12.22;100.00;98004.66;5093416;28;20204;-68
2020/12/23 03:34:28;;;;;;;3.27;0.87;;;;;;;12.10;100.00;98007.47;5092773;28;20323;-68
2020/12/23 03:36:54;;;;;;;3.23;0.90;;;;;;;12.08;100.00;98007.00;5092843;28;20633;-68
2020/12/23 03:39:20;;;;;;;1.90;0.80;;;;;;;12.20;100.00;98007.00;5093649;28;20204;-71
2020/12/23 03:41:46;;;;;;;2.67;1.20;;;;;;;12.23;100.00;97999.94;5093337;28;20253;-68
2020/12/23 03:44:12;;;;;;;4.23;1.23;;;;;;;12.19;100.00;97994.31;5092661;28;20262;-68
2020/12/23 03:46:38;;;;;;;2.23;0.90;;;;;;;12.28;100.00;97993.34;5092506;28;20311;-68
2020/12/23 03:49:04;;;;;;;2.03;0.70;;;;;;;12.26;100.00;97993.72;5093076;28;20641;-69
2020/12/23 03:51:30;;;;;;;5.90;1.13;;;;;;;12.31;100.00;97990.69;5093582;28;20205;-68
2020/12/23 03:53:56;;;;;;;2.30;0.97;;;;;;;12.34;100.00;97978.09;5092486;28;20651;-69
2020/12/23 03:56:22;;;;;;;2.77;0.90;;;;;;;12.34;100.00;97978.09;5091777;28;20221;-68
2020/12/23 03:58:48;;;;;;;1.17;0.80;;;;;;;12.34;100.00;97984.44;5091876;28;20204;-68
2020/12/23 04:01:14;;;;;;;1.73;1.00;;;;;;;12.32;100.00;97985.97;5093057;28;20211;-68
2020/12/23 04:03:41;;;;;;;1.53;0.73;;;;;;;12.39;100.00;97980.63;5092623;28;20212;-68
2020/12/23 04:06:07;;;;;;;1.53;0.90;;;;;;;12.35;100.00;97979.72;5093115;28;20311;-68
2020/12/23 04:08:34;;;;;;;1.07;0.80;;;;;;;12.33;100.00;97984.81;5093038;28;20673;-67
2020/12/23 04:11:00;;;;;;;2.70;1.00;;;;;;;12.35;100.00;97990.78;5092250;28;20261;-68
2020/12/23 04:13:26;;;;;;;1.93;1.00;;;;;;;12.32;100.00;97988.75;5094201;28;20721;-67
2020/12/23 04:15:52;;;;;;;2.77;1.10;;;;;;;12.35;100.00;97983.31;5091333;28;20705;-68
2020/12/23 04:18:19;;;;;;;2.67;1.10;;;;;;;12.32;100.00;97988.75;5092708;28;20731;-68
2020/12/23 04:20:45;;;;;;;4.37;1.10;;;;;;;12.32;100.00;97991.50;5093073;28;20201;-68
2020/12/23 04:23:12;;;;;;;3.60;1.00;;;;;;;12.35;100.00;97980.53;5094441;28;20201;-67
2020/12/23 04:25:48;;;;;;;0.87;0.73;;;;;;;12.37;100.00;97980.97;5118082;28;20231;-67
2020/12/23 04:28:14;;;;;;;1.90;1.00;;;;;;;12.43;100.00;97975.97;5125472;28;20217;-67
2020/12/23 04:30:44;;;;;;;1.83;0.93;;;;;;;12.42;100.00;97974.38;5118621;28;20199;-67
2020/12/23 04:33:14;;;;;;;0.60;0.60;;;;;;;12.38;100.00;97967.94;5112032;28;20653;-69
2020/12/23 04:35:56;;;;;;;3.03;1.03;;;;;;;12.39;100.00;97973.13;5111993;28;20281;-68
2020/12/23 04:38:22;;;;;;;2.03;0.90;;;;;;;12.37;100.00;97961.59;5112570;28;20254;-69
2020/12/23 04:40:48;;;;;;;1.83;0.87;;;;;;;12.35;100.00;97957.59;5112308;28;20680;-68
2020/12/23 04:43:15;;;;;;;3.17;1.10;;;;;;;12.34;100.00;97972.56;5112321;28;20299;-67
2020/12/23 04:45:41;;;;;;;2.97;1.00;;;;;;;12.35;100.00;97968.66;5124322;28;20265;-68
2020/12/23 04:48:07;;;;;;;0.90;0.77;;;;;;;12.31;100.00;97978.81;5130112;28;20241;-68
2020/12/23 04:50:34;;;;;;;1.73;0.83;;;;;;;12.27;100.00;97980.66;5099644;27;20294;-68
2020/12/23 04:53:00;;;;;;;1.57;0.80;;;;;;;12.29;100.00;97975.59;5132484;27;20385;-68
2020/12/23 04:55:26;;;;;;;1.20;0.77;;;;;;;12.30;100.00;97974.44;5132177;27;20258;-69
2020/12/23 04:57:55;;;;;;;2.77;1.00;;;;;;;12.34;100.00;97978.09;5132838;27;20199;-68
2020/12/23 05:00:26;;;;;;;1.97;1.10;;;;;;;12.25;100.00;97978.25;5114473;27;20622;-68
2020/12/23 05:02:53;;;;;;;0.90;0.60;;;;;;;12.23;100.00;97984.16;5132465;27;20201;-68
2020/12/23 05:05:19;;;;;;;4.83;0.80;;;;;;;12.17;100.00;97980.00;5132291;27;20223;-68
2020/12/23 05:07:48;;;;;;;2.10;0.90;;;;;;;12.23;100.00;97984.16;5132211;27;20207;-68
2020/12/23 05:10:14;;;;;;;1.20;0.93;;;;;;;12.16;100.00;97974.84;5127089;27;20705;-68
2020/12/23 05:12:41;;;;;;;3.23;1.20;;;;;;;12.16;100.00;97983.13;5112199;28;20224;-68
2020/12/23 05:15:07;;;;;;;3.10;0.80;;;;;;;12.13;100.00;97984.63;5111140;28;20306;-68
2020/12/23 05:17:33;;;;;;;1.33;0.93;;;;;;;12.14;100.00;97977.97;5111932;28;20232;-68
2020/12/23 05:20:00;;;;;;;2.40;0.90;;;;;;;12.07;100.00;97975.00;5111766;28;20210;-67
2020/12/23 05:22:29;;;;;;;1.90;1.00;;;;;;;12.00;100.00;97974.78;5111796;28;20290;-67
2020/12/23 05:24:57;;;;;;;1.10;0.80;;;;;;;11.96;100.00;97973.06;5111267;28;20263;-69
2020/12/23 05:27:23;;;;;;;2.13;0.90;;;;;;;11.98;100.00;97970.75;5111591;28;20239;-67
2020/12/23 05:29:50;;;;;;;1.33;0.67;;;;;;;11.96;100.00;97973.88;5093998;28;20199;-67
2020/12/23 05:32:16;;;;;;;2.53;0.93;;;;;;;12.01;100.00;97981.91;5135640;27;20192;-69
2020/12/23 05:34:43;;;;;;;2.73;1.17;;;;;;;11.98;100.00;97979.88;5123587;27;20649;-69
2020/12/23 05:37:09;;;;;;;1.90;0.93;;;;;;;11.97;100.00;97981.00;5111267;28;20273;-69
2020/12/23 05:39:37;;;;;;;2.13;1.00;;;;;;;12.01;100.00;97970.84;5112014;28;20199;-68
2020/12/23 05:42:03;;;;;;;1.33;0.80;;;;;;;12.06;100.00;97984.44;5111797;28;20569;-68
2020/12/23 05:44:30;;;;;;;2.23;1.10;;;;;;;12.03;100.00;97973.25;5111259;28;20235;-68
2020/12/23 05:46:59;;;;;;;2.93;0.77;;;;;;;11.95;100.00;97977.78;5111048;28;20207;-68
2020/12/23 05:49:28;;;;;;;1.33;0.80;;;;;;;11.94;100.00;97980.91;5111450;28;20286;-68
2020/12/23 05:51:54;;;;;;;1.17;0.70;;;;;;;11.84;100.00;97982.19;5104818;28;20236;-69
2020/12/23 05:54:21;;;;;;;2.83;1.10;;;;;;;11.90;100.00;97978.03;5094786;28;20227;-69
2020/12/23 05:56:51;;;;;;;10.20;4.47;;;;;;;11.88;100.00;97980.34;5086319;28;20319;-67
2020/12/23 05:59:18;;;;;;;11.00;4.90;;;;;;;11.93;100.00;97982.84;5086855;28;20255;-66
2020/12/23 06:01:44;;;;;;;16.27;6.43;;;;;;;11.97;100.00;97985.75;5087575;28;21016;-68
2020/12/23 06:04:15;;;;;;;13.33;5.00;;;;;;;11.95;100.00;97969.47;5097718;28;20227;-67
2020/12/23 06:07:05;;;;;;;19.07;8.33;;;;;;;11.87;100.00;97978.75;5101557;28;20279;-67
2020/12/23 06:09:37;;;;;;;19.70;6.93;;;;;;;11.90;100.00;97975.25;5098087;28;20228;-68
2020/12/23 06:12:23;;;;;;;31.00;16.00;;;;;;;11.89;100.00;97965.38;5110203;28;20298;-67
2020/12/23 06:14:52;;;;;;;44.83;25.40;;;;;;;11.94;100.00;97970.66;5110812;28;20281;-67
2020/12/23 06:17:23;;;;;;;35.73;21.17;;;;;;;11.97;100.00;97981.00;5113270;28;20195;-68
2020/12/23 06:19:53;;;;;;;10.00;5.83;;;;;;;11.97;100.00;97986.53;5131764;28;20295;-67
2020/12/23 06:22:26;;;;;;;13.13;6.93;;;;;;;11.94;100.00;97980.91;5114167;28;20246;-67
2020/12/23 06:24:53;;;;;;;21.27;9.63;;;;;;;11.89;100.00;97973.66;5111036;28;20219;-66
2020/12/23 06:27:21;;;;;;;17.30;6.77;;;;;;;11.86;100.00;97974.34;5095581;28;20692;-68
2020/12/23 06:29:48;;;;;;;18.60;7.53;;;;;;;11.87;100.00;97978.75;5110349;28;20218;-67
2020/12/23 06:32:24;;;;;;;19.17;7.10;;;;;;;11.86;100.00;97982.63;5113173;28;20215;-67
2020/12/23 06:35:06;;;;;;;14.13;5.13;;;;;;;11.90;100.00;97983.56;5110426;28;20629;-68
2020/12/23 06:37:34;;;;;;;12.37;4.73;;;;;;;11.67;100.00;97985.22;5111311;28;20207;-67
2020/12/23 06:40:08;;;;;;;5.17;2.50;;;;;;;11.76;100.00;97993.38;5113738;28;20200;-67
2020/12/23 06:42:34;;;;;;;5.07;1.37;;;;;;;11.81;100.00;97984.84;5114547;28;20211;-67
2020/12/23 06:45:05;;;;;;;3.43;1.20;;;;;;;11.90;100.00;97991.84;5113424;28;20258;-66
2020/12/23 06:47:34;;;;;;;2.03;1.20;;;;;;;11.81;100.00;97995.91;5114524;28;20326;-67
2020/12/23 06:50:00;;;;;;;3.83;1.43;;;;;;;11.73;100.00;98000.41;5115012;28;20208;-66
2020/12/23 06:52:27;;;;;;;3.97;1.77;;;;;;;11.63;100.00;98003.63;5115219;28;20211;-67
2020/12/23 06:54:54;;;;;;;2.47;1.67;;;;;;;11.79;100.00;98000.97;5114329;28;20631;-66
2020/12/23 06:57:38;;;;;;;2.77;1.40;;;;;;;11.83;100.00;97997.19;5113939;28;20664;-66
2020/12/23 07:00:17;;;;;;;3.47;1.20;;;;;;;11.81;100.00;97985.66;5096505;28;20210;-66
2020/12/23 07:02:50;;;;;;;1.50;1.13;;;;;;;11.84;100.00;97987.72;5113632;28;20948;-65
2020/12/23 07:05:22;;;;;;;5.87;1.50;;;;;;;11.84;100.00;97998.78;5113219;28;20749;-66
2020/12/23 07:07:53;;;;;;;2.17;1.33;;;;;;;11.63;100.00;97995.34;5114565;28;20291;-67
2020/12/23 07:10:21;;;;;;;2.63;1.13;;;;;;;11.61;100.00;97991.28;5106385;27;20287;-66
2020/12/23 07:12:58;;;;;;;1.23;1.03;;;;;;;11.72;100.00;97987.75;5101529;28;20291;-66
2020/12/23 07:15:24;;;;;;;2.30;1.23;;;;;;;11.73;100.00;97994.88;5109210;28;20235;-67
2020/12/23 07:17:57;;;;;;;1.23;0.93;;;;;;;11.88;100.00;97988.63;5110065;28;20203;-67
2020/12/23 07:20:24;;;;;;;2.23;1.30;;;;;;;11.81;100.00;97988.41;5110228;28;20204;-67
2020/12/23 07:22:52;;;;;;;4.60;1.70;;;;;;;11.74;100.00;97982.69;5108518;28;20227;-68
2020/12/23 07:25:25;;;;;;;4.50;1.80;;;;;;;11.72;100.00;97998.81;5107975;28;20248;-67
2020/12/23 07:27:55;;;;;;;4.23;1.43;;;;;;;11.71;100.00;98004.69;5111039;27;20735;-66
2020/12/23 07:30:22;;;;;;;6.70;1.93;;;;;;;11.80;100.00;97991.53;5130402;27;20234;-69
2020/12/23 07:33:22;;;;;;;3.53;1.60;;;;;;;11.75;100.00;97989.03;5128938;27;20333;-67
2020/12/23 07:35:56;;;;;;;2.70;1.30;;;;;;;11.79;100.00;97982.44;5074996;27;20279;-68
2020/12/23 07:38:24;;;;;;;5.00;1.40;;;;;;;11.87;100.00;97987.03;5129405;27;20683;-66
2020/12/23 07:40:51;;;;;;;3.07;1.30;;;;;;;11.81;100.00;97988.41;5130570;27;20303;-66
2020/12/23 07:43:18;;;;;;;2.43;1.20;;;;;;;11.90;100.00;97991.84;5129539;27;20260;-67
2020/12/23 07:45:45;;;;;;;7.70;1.83;;;;;;;11.78;100.00;97978.06;5130720;27;20230;-66
2020/12/23 07:48:22;;;;;;;7.20;2.00;;;;;;;11.73;100.00;97975.53;5133802;27;20195;-68
2020/12/23 07:50:53;;;;;;;3.30;1.53;;;;;;;11.74;100.00;97979.09;5137204;27;20209;-67
2020/12/23 07:53:28;;;;;;;2.57;1.23;;;;;;;11.86;100.00;97971.59;5119886;27;20254;-68
2020/12/23 07:56:01;;;;;;;2.10;1.00;;;;;;;12.01;100.00;97964.50;5136226;27;20313;-66
2020/12/23 07:58:28;;;;;;;4.70;1.17;;;;;;;12.02;100.00;97968.91;5129399;27;20207;-67
2020/12/23 08:00:54;;;;;;;2.00;1.00;;;;;;;11.96;100.00;97973.88;5130460;27;20210;-66
2020/12/23 08:03:39;;;;;;;5.17;1.33;;;;;;;11.95;100.00;97971.47;5129140;27;20289;-66
2020/12/23 08:06:12;;;;;;;2.13;1.10;;;;;;;12.02;100.00;97971.66;5129340;27;20219;-66
2020/12/23 08:08:40;;;;;;;1.00;0.90;;;;;;;11.96;100.00;97973.88;5132760;27;20235;-67
2020/12/23 08:11:12;;;;;;;2.40;1.20;;;;;;;11.99;100.00;97967.63;5120183;27;20218;-67
2020/12/23 08:13:39;;;;;;;0.87;0.63;;;;;;;12.01;100.00;97964.50;5123596;27;20231;-67
2020/12/23 08:16:13;;;;;;;2.00;1.30;;;;;;;12.10;100.00;97968.75;5132444;27;20310;-67
2020/12/23 08:18:40;;;;;;;2.23;0.87;;;;;;;12.11;100.00;97964.84;5133128;27;20294;-67
2020/12/23 08:21:11;;;;;;;2.63;1.23;;;;;;;12.08;100.00;97959.19;5133321;27;20236;-67
2020/12/23 08:23:38;;;;;;;1.17;0.83;;;;;;;12.13;100.00;97961.72;5132743;27;20859;-66
2020/12/23 08:26:05;;;;;;;1.67;1.03;;;;;;;12.08;100.00;97962.75;5132342;27;20227;-67
2020/12/23 08:28:34;;;;;;;2.07;1.00;;;;;;;12.21;100.00;97964.31;5133448;27;20203;-66
2020/12/23 08:31:01;;;;;;;3.63;1.47;;;;;;;12.11;100.00;97962.06;5133248;27;20565;-66
2020/12/23 08:33:31;;;;;;;2.87;1.30;;;;;;;12.01;100.00;97956.22;5116721;27;20319;-67
2020/12/23 08:36:02;;;;;;;1.73;1.20;;;;;;;12.06;100.00;97962.31;5148343;27;20245;-67
2020/12/23 08:38:36;;;;;;;2.13;1.20;;;;;;;12.14;100.00;97961.38;5120431;27;20199;-66
2020/12/23 08:41:09;;;;;;;3.93;1.17;;;;;;;12.04;100.00;97961.84;5085677;28;20207;-65
2020/12/23 08:43:35;;;;;;;4.50;1.40;;;;;;;12.08;100.00;97960.00;5099056;28;20326;-68
2020/12/23 08:46:01;;;;;;;3.53;1.40;;;;;;;11.95;100.00;97955.66;5052984;28;20399;-67
2020/12/23 08:48:29;;;;;;;5.90;1.90;;;;;;;11.92;100.00;97950.84;5068733;28;20303;-67
2020/12/23 08:50:56;;;;;;;21.37;2.80;;;;;;;11.63;100.00;97962.16;5086446;28;20295;-67
2020/12/23 08:53:35;;;;;;;6.53;2.67;;;;;;;11.44;100.00;97970.25;5086948;28;20304;-67
2020/12/23 08:56:19;;;;;;;13.53;3.33;;;;;;;11.37;100.00;97970.00;5087230;28;20251;-67
2020/12/23 08:58:49;;;;;;;23.40;4.10;;;;;;;11.29;100.00;97973.72;5080913;28;20200;-67
2020/12/23 09:01:25;;;;;;;20.80;3.67;;;;;;;11.30;100.00;97978.09;5107229;28;20223;-67
2020/12/23 09:03:58;;;;;;;13.47;3.70;;;;;;;11.42;100.00;97975.34;5106633;28;20199;-68
2020/12/23 09:06:24;;;;;;;16.27;4.30;;;;;;;11.39;100.00;97973.25;5116855;27;20276;-68
2020/12/23 09:09:05;;;;;;;10.13;3.70;;;;;;;11.56;100.00;97975.78;5126795;27;20203;-69
2020/12/23 09:11:47;;;;;;;11.50;4.13;;;;;;;11.42;100.00;97977.28;5109973;27;20237;-68
2020/12/23 09:14:16;;;;;;;11.53;3.47;;;;;;;11.34;100.00;97984.53;5114352;27;20309;-68
2020/12/23 09:17:21;;;;;;;8.33;4.23;;;;;;;11.47;100.00;97988.91;5123536;27;20732;-67
2020/12/23 09:20:01;;;;;;;9.93;4.40;;;;;;;11.53;100.00;97992.25;5047529;28;20247;-67
2020/12/23 09:22:36;;;;;;;11.53;3.87;;;;;;;11.56;100.00;97984.06;5104768;28;20208;-68
2020/12/23 09:25:28;;;;;;;8.97;4.07;;;;;;;11.66;100.00;97988.34;5102062;28;20220;-67
2020/12/23 09:28:15;;;;;;;8.83;3.97;;;;;;;11.25;100.00;97986.59;5106627;28;20196;-68
2020/12/23 09:30:52;;;;;;;7.00;4.27;;;;;;;11.14;100.00;97985.44;5070042;28;20219;-63
2020/12/23 09:33:21;;;;;;;8.97;4.40;;;;;;;11.15;100.00;97987.88;5086453;28;20231;-65
2020/12/23 09:35:49;;;;;;;9.47;4.33;;;;;;;11.15;100.00;97989.81;5092757;28;20227;-68
2020/12/23 09:38:34;;;;;;;10.17;4.50;;;;;;;11.26;100.00;97981.91;5103584;28;20799;-66
2020/12/23 09:41:06;;;;;;;12.20;4.50;;;;;;;11.28;100.00;97974.84;5104145;28;20274;-69
2020/12/23 09:43:36;;;;;;;11.53;4.33;;;;;;;11.36;100.00;97965.66;5105441;28;20237;-68
2020/12/23 09:46:08;;;;;;;6.70;4.13;;;;;;;11.42;100.00;97967.03;5087972;28;20246;-66
2020/12/23 09:48:35;;;;;;;9.90;4.43;;;;;;;11.34;100.00;97958.84;5106717;28;20278;-67
2020/12/23 09:51:01;;;;;;;9.03;4.30;;;;;;;11.56;100.00;97953.66;5103026;28;20241;-67
2020/12/23 09:53:27;;;;;;;7.83;4.07;;;;;;;11.57;100.00;97955.25;5102999;28;20320;-66
2020/12/23 09:55:54;;;;;;;12.73;4.40;;;;;;;11.53;100.00;97965.38;5107201;28;20299;-67
2020/12/23 09:58:21;;;;;;;10.23;4.53;;;;;;;11.60;100.00;97960.09;5112403;28;20204;-67
2020/12/23 10:00:48;;;;;;;10.37;5.70;;;;;;;11.53;100.00;97948.03;5111616;28;20214;-67
2020/12/23 10:03:14;;;;;;;6.57;4.17;;;;;;;11.64;100.00;97943.63;5109977;28;20239;-69
2020/12/23 10:05:43;;;;;;;7.30;4.30;;;;;;;11.70;100.00;97950.53;5093843;28;20269;-67
2020/12/23 10:08:09;;;;;;;14.90;4.60;;;;;;;11.64;100.00;97938.88;5111512;28;20247;-68
2020/12/23 10:10:36;;;;;;;8.90;3.40;;;;;;;11.74;100.00;97932.09;5110565;28;20210;-67
2020/12/23 10:13:03;;;;;;;8.17;3.77;;;;;;;11.87;100.00;97926.19;5110740;28;20281;-69
2020/12/23 10:15:31;;;;;;;9.20;3.80;;;;;;;11.86;100.00;97930.09;5110766;28;20223;-67
2020/12/23 10:18:02;;;;;;;5.77;3.70;;;;;;;11.80;100.00;97914.94;5110511;28;20749;-68
2020/12/23 10:20:28;;;;;;;7.87;4.17;;;;;;;11.77;100.00;97914.84;5113307;28;20203;-68
2020/12/23 10:22:54;;;;;;;4.97;3.77;;;;;;;11.70;100.00;97914.59;5114519;28;20268;-67
2020/12/23 10:25:20;;;;;;;6.20;4.20;;;;;;;11.72;100.00;97918.63;5114686;28;20704;-67
2020/12/23 10:27:46;;;;;;;7.13;4.00;;;;;;;11.87;100.00;97912.38;5096898;28;20200;-66
2020/12/23 10:30:12;;;;;;;10.27;4.47;;;;;;;11.81;100.00;97915.72;5114822;28;20257;-67
2020/12/23 10:32:38;;;;;;;7.47;4.30;;;;;;;11.98;100.00;97910.72;5114623;28;20691;-66
2020/12/23 10:35:07;;;;;;;8.70;3.60;;;;;;;11.97;100.00;97911.84;5113995;28;20232;-66
2020/12/23 10:37:33;;;;;;;5.33;3.90;;;;;;;11.99;100.00;97894.91;5114509;28;20200;-66
2020/12/23 10:40:00;;;;;;;9.87;3.90;;;;;;;11.88;100.00;97904.84;5114788;28;20619;-67
2020/12/23 10:42:28;;;;;;;5.47;3.27;;;;;;;11.86;100.00;97907.19;5125638;27;20234;-66
2020/12/23 10:44:54;;;;;;;6.63;3.50;;;;;;;11.85;100.00;97900.84;5130836;27;20295;-64
2020/12/23 10:47:33;;;;;;;11.20;3.73;;;;;;;12.00;100.00;97902.88;5136202;27;20660;-68
2020/12/23 10:50:00;;;;;;;6.37;3.80;;;;;;;11.96;100.00;97896.44;5130418;27;20208;-67
2020/12/23 10:52:27;;;;;;;9.00;4.13;;;;;;;12.08;100.00;97890.84;5131940;27;20200;-67
2020/12/23 10:54:54;;;;;;;9.07;3.90;;;;;;;12.29;100.00;97887.03;5105481;28;20246;-66
2020/12/23 10:57:20;;;;;;;6.43;3.70;;;;;;;12.40;100.00;97888.94;5112001;28;20852;-67
2020/12/23 10:59:48;;;;;;;13.13;3.97;;;;;;;12.26;100.00;97879.47;5112366;28;20216;-67
2020/12/23 11:02:14;;;;;;;9.83;3.63;;;;;;;11.91;100.00;97871.81;5117674;28;20677;-69
2020/12/23 11:04:40;;;;;;;7.07;3.80;;;;;;;11.95;100.00;97869.91;5125111;28;20226;-69
2020/12/23 11:07:06;;;;;;;10.07;4.10;;;;;;;11.91;100.00;97874.56;5127839;28;20212;-68
2020/12/23 11:09:32;;;;;;;16.30;4.37;;;;;;;11.78;100.00;97874.97;5111736;28;20215;-67
2020/12/23 11:11:58;;;;;;;9.07;4.40;;;;;;;11.87;100.00;97876.44;5112426;28;20215;-67
2020/12/23 11:14:24;;;;;;;5.60;3.50;;;;;;;11.95;100.00;97878.22;5108742;28;20636;-67
2020/12/23 11:16:51;;;;;;;5.50;3.80;;;;;;;11.87;100.00;97873.66;5110237;28;20228;-65
2020/12/23 11:19:18;;;;;;;8.43;4.00;;;;;;;11.94;100.00;97865.56;5111143;28;20211;-66
2020/12/23 11:21:45;;;;;;;8.47;4.17;;;;;;;11.94;100.00;97861.97;5111462;28;20276;-66
2020/12/23 11:24:11;;;;;;;5.27;3.37;;;;;;;12.01;100.00;97859.41;5111632;28;20268;-68
2020/12/23 11:26:37;;;;;;;6.70;3.87;;;;;;;12.11;100.00;97859.72;5112422;28;20281;-68
2020/12/23 11:29:04;;;;;;;6.43;3.47;;;;;;;12.18;100.00;97854.38;5113329;28;20294;-68
2020/12/23 11:31:31;;;;;;;10.73;4.83;;;;;;;12.28;100.00;97847.50;5113033;28;20664;-68
2020/12/23 11:33:58;;;;;;;8.13;4.80;;;;;;;12.18;100.00;97846.09;5112362;28;20270;-68
2020/12/23 11:36:24;;;;;;;8.73;4.40;;;;;;;12.18;100.00;97846.09;5115274;28;20289;-68
2020/12/23 11:38:53;;;;;;;9.77;4.07;;;;;;;12.14;100.00;97836.88;5122508;28;20239;-69
2020/12/23 11:41:19;;;;;;;12.33;4.07;;;;;;;11.94;100.00;97837.91;5113816;28;20358;-68
2020/12/23 11:43:45;;;;;;;8.90;3.63;;;;;;;11.83;100.00;97831.28;5094564;28;20622;-70
2020/12/23 11:46:15;;;;;;;9.47;3.90;;;;;;;11.87;100.00;97834.94;5113968;28;20304;-69
2020/12/23 11:48:41;;;;;;;6.50;3.77;;;;;;;11.71;100.00;97842.41;5110258;28;20278;-67
2020/12/23 11:51:08;;;;;;;9.33;4.20;;;;;;;11.72;100.00;97845.94;5110213;28;20620;-68
2020/12/23 11:53:37;;;;;;;7.27;4.40;;;;;;;11.66;100.00;97848.16;5078025;28;20303;-67
2020/12/23 11:56:07;;;;;;;7.10;4.40;;;;;;;11.63;100.00;97842.50;5109657;28;20219;-66
2020/12/23 11:58:33;;;;;;;7.73;4.37;;;;;;;11.61;100.00;97845.63;5105620;28;20227;-67
2020/12/23 12:00:59;;;;;;;5.73;4.27;;;;;;;11.56;100.00;97843.13;5134424;27;20308;-68
2020/12/23 12:03:28;;;;;;;6.13;4.53;;;;;;;11.43;100.00;97849.81;5135158;27;20195;-68